sensor_id;sensor_type;location;lat;lon;timestamp;temperature;humidity
10278;DHT22;5184;51.376;7.148;2024-03-02T00:00:15;7.60;99.90
10278;DHT22;5184;51.376;7.148;2024-03-02T00:02:44;7.70;99.90
10278;DHT22;5184;51.376;7.148;2024-03-02T00:05:11;7.70;99.90
10278;DHT22;5184;51.376;7.148;2024-03-02T00:07:40;7.70;99.90
10278;DHT22;5184;51.376;7.148;2024-03-02T00:10:05;7.70;99.90
10278;DHT22;5184;51.376;7.148;2024-03-02T00:12:31;7.70;99.90
10278;DHT22;5184;51.376;7.148;2024-03-02T00:14:58;7.70;99.90
10278;DHT22;5184;51.376;7.148;2024-03-02T00:17:25;7.70;99.90
10278;DHT22;5184;51.376;7.148;2024-03-02T00:19:52;7.70;99.90
10278;DHT22;5184;51.376;7.148;2024-03-02T00:22:20;7.70;99.90
10278;DHT22;5184;51.376;7.148;2024-03-02T00:24:47;7.70;99.90
10278;DHT22;5184;51.376;7.148;2024-03-02T00:27:14;7.70;99.90
10278;DHT22;5184;51.376;7.148;2024-03-02T00:29:40;7.70;99.90
10278;DHT22;5184;51.376;7.148;2024-03-02T00:32:13;7.70;99.90
10278;DHT22;5184;51.376;7.148;2024-03-02T00:34:39;7.70;99.90
10278;DHT22;5184;51.376;7.148;2024-03-02T00:37:06;7.80;99.90
10278;DHT22;5184;51.376;7.148;2024-03-02T00:39:32;7.80;99.90
10278;DHT22;5184;51.376;7.148;2024-03-02T00:42:00;7.80;99.90
10278;DHT22;5184;51.376;7.148;2024-03-02T00:44:26;7.80;99.90
10278;DHT22;5184;51.376;7.148;2024-03-02T00:46:53;7.90;99.90
10278;DHT22;5184;51.376;7.148;2024-03-02T00:49:21;7.90;99.90
10278;DHT22;5184;51.376;7.148;2024-03-02T00:51:49;7.90;99.90
10278;DHT22;5184;51.376;7.148;2024-03-02T00:54:19;7.90;99.90
10278;DHT22;5184;51.376;7.148;2024-03-02T00:56:42;7.90;99.90
10278;DHT22;5184;51.376;7.148;2024-03-02T00:59:10;7.90;99.90
10278;DHT22;5184;51.376;7.148;2024-03-02T01:01:35;7.90;99.90
10278;DHT22;5184;51.376;7.148;2024-03-02T01:04:02;7.90;99.90
10278;DHT22;5184;51.376;7.148;2024-03-02T01:06:29;8.00;99.90
10278;DHT22;5184;51.376;7.148;2024-03-02T01:08:55;8.00;99.90
10278;DHT22;5184;51.376;7.148;2024-03-02T01:11:22;8.00;99.90
10278;DHT22;5184;51.376;7.148;2024-03-02T01:13:49;8.10;91.70
10278;DHT22;5184;51.376;7.148;2024-03-02T01:16:17;8.10;99.90
10278;DHT22;5184;51.376;7.148;2024-03-02T01:18:44;8.10;99.90
10278;DHT22;5184;51.376;7.148;2024-03-02T01:21:11;8.20;99.90
10278;DHT22;5184;51.376;7.148;2024-03-02T01:23:39;8.20;99.90
10278;DHT22;5184;51.376;7.148;2024-03-02T01:26:06;8.30;96.20
10278;DHT22;5184;51.376;7.148;2024-03-02T01:28:33;8.30;94.20
10278;DHT22;5184;51.376;7.148;2024-03-02T01:31:01;8.30;87.00
10278;DHT22;5184;51.376;7.148;2024-03-02T01:33:28;8.30;91.70
10278;DHT22;5184;51.376;7.148;2024-03-02T01:35:55;8.30;99.90
10278;DHT22;5184;51.376;7.148;2024-03-02T01:38:22;8.30;99.90
10278;DHT22;5184;51.376;7.148;2024-03-02T01:40:49;8.20;88.90
10278;DHT22;5184;51.376;7.148;2024-03-02T01:43:15;8.30;91.60
10278;DHT22;5184;51.376;7.148;2024-03-02T01:45:43;8.30;69.60
10278;DHT22;5184;51.376;7.148;2024-03-02T01:48:09;8.20;73.70
10278;DHT22;5184;51.376;7.148;2024-03-02T01:50:36;8.20;78.40
10278;DHT22;5184;51.376;7.148;2024-03-02T01:53:02;8.20;50.90
10278;DHT22;5184;51.376;7.148;2024-03-02T01:55:29;8.20;58.90
10278;DHT22;5184;51.376;7.148;2024-03-02T01:57:56;8.20;93.50
10278;DHT22;5184;51.376;7.148;2024-03-02T02:00:22;8.20;64.10
10278;DHT22;5184;51.376;7.148;2024-03-02T02:02:50;8.10;86.80
10278;DHT22;5184;51.376;7.148;2024-03-02T02:05:17;8.00;94.20
10278;DHT22;5184;51.376;7.148;2024-03-02T02:07:44;8.00;99.90
10278;DHT22;5184;51.376;7.148;2024-03-02T02:10:12;8.00;99.90
10278;DHT22;5184;51.376;7.148;2024-03-02T02:12:39;8.10;88.80
10278;DHT22;5184;51.376;7.148;2024-03-02T02:15:23;8.00;81.20
10278;DHT22;5184;51.376;7.148;2024-03-02T02:17:49;8.00;89.30
10278;DHT22;5184;51.376;7.148;2024-03-02T02:20:17;8.00;97.20
10278;DHT22;5184;51.376;7.148;2024-03-02T02:22:56;8.00;87.00
10278;DHT22;5184;51.376;7.148;2024-03-02T02:25:23;8.00;99.90
10278;DHT22;5184;51.376;7.148;2024-03-02T02:27:49;8.00;96.50
10278;DHT22;5184;51.376;7.148;2024-03-02T02:30:20;8.10;92.80
10278;DHT22;5184;51.376;7.148;2024-03-02T02:32:47;8.10;69.20
10278;DHT22;5184;51.376;7.148;2024-03-02T02:35:14;8.10;99.90
10278;DHT22;5184;51.376;7.148;2024-03-02T02:37:42;8.10;92.90
10278;DHT22;5184;51.376;7.148;2024-03-02T02:40:09;8.10;89.10
10278;DHT22;5184;51.376;7.148;2024-03-02T02:42:36;8.10;98.30
10278;DHT22;5184;51.376;7.148;2024-03-02T02:45:04;8.10;93.40
10278;DHT22;5184;51.376;7.148;2024-03-02T02:47:30;8.10;95.70
10278;DHT22;5184;51.376;7.148;2024-03-02T02:49:57;8.00;83.50
10278;DHT22;5184;51.376;7.148;2024-03-02T02:52:23;8.00;97.80
10278;DHT22;5184;51.376;7.148;2024-03-02T02:54:51;8.10;91.90
10278;DHT22;5184;51.376;7.148;2024-03-02T02:57:18;8.10;91.30
10278;DHT22;5184;51.376;7.148;2024-03-02T02:59:45;8.10;90.20
10278;DHT22;5184;51.376;7.148;2024-03-02T03:02:13;8.10;96.60
10278;DHT22;5184;51.376;7.148;2024-03-02T03:04:40;8.10;89.20
10278;DHT22;5184;51.376;7.148;2024-03-02T03:07:07;8.20;92.90
10278;DHT22;5184;51.376;7.148;2024-03-02T03:09:36;8.20;90.40
10278;DHT22;5184;51.376;7.148;2024-03-02T03:12:01;8.20;82.60
10278;DHT22;5184;51.376;7.148;2024-03-02T03:14:28;8.20;88.70
10278;DHT22;5184;51.376;7.148;2024-03-02T03:16:55;8.20;78.60
10278;DHT22;5184;51.376;7.148;2024-03-02T03:19:21;8.30;80.20
10278;DHT22;5184;51.376;7.148;2024-03-02T03:21:48;8.30;75.30
10278;DHT22;5184;51.376;7.148;2024-03-02T03:24:15;8.40;82.80
10278;DHT22;5184;51.376;7.148;2024-03-02T03:26:42;8.40;77.50
10278;DHT22;5184;51.376;7.148;2024-03-02T03:29:08;8.40;66.30
10278;DHT22;5184;51.376;7.148;2024-03-02T03:31:36;8.40;59.50
10278;DHT22;5184;51.376;7.148;2024-03-02T03:34:03;8.40;82.50
10278;DHT22;5184;51.376;7.148;2024-03-02T03:36:30;8.40;92.60
10278;DHT22;5184;51.376;7.148;2024-03-02T03:38:58;8.40;68.50
10278;DHT22;5184;51.376;7.148;2024-03-02T03:41:25;8.40;90.20
10278;DHT22;5184;51.376;7.148;2024-03-02T03:43:52;8.30;50.50
10278;DHT22;5184;51.376;7.148;2024-03-02T03:46:19;8.40;76.00
10278;DHT22;5184;51.376;7.148;2024-03-02T03:48:46;8.40;48.40
10278;DHT22;5184;51.376;7.148;2024-03-02T03:51:12;8.40;50.80
10278;DHT22;5184;51.376;7.148;2024-03-02T03:53:40;8.40;53.40
10278;DHT22;5184;51.376;7.148;2024-03-02T03:56:06;8.40;89.00
10278;DHT22;5184;51.376;7.148;2024-03-02T03:58:33;8.40;77.50
10278;DHT22;5184;51.376;7.148;2024-03-02T04:00:59;8.40;85.10
10278;DHT22;5184;51.376;7.148;2024-03-02T04:03:26;8.30;86.20
10278;DHT22;5184;51.376;7.148;2024-03-02T04:05:53;8.30;99.90
10278;DHT22;5184;51.376;7.148;2024-03-02T04:08:21;8.30;99.90
10278;DHT22;5184;51.376;7.148;2024-03-02T04:10:48;8.30;99.90
10278;DHT22;5184;51.376;7.148;2024-03-02T04:13:15;8.20;99.90
10278;DHT22;5184;51.376;7.148;2024-03-02T04:15:43;8.20;99.90
10278;DHT22;5184;51.376;7.148;2024-03-02T04:18:10;8.20;97.40
10278;DHT22;5184;51.376;7.148;2024-03-02T04:20:37;8.20;99.90
10278;DHT22;5184;51.376;7.148;2024-03-02T04:23:03;8.20;99.90
10278;DHT22;5184;51.376;7.148;2024-03-02T04:25:30;8.20;99.90
10278;DHT22;5184;51.376;7.148;2024-03-02T04:27:56;8.20;91.40
10278;DHT22;5184;51.376;7.148;2024-03-02T04:30:23;8.10;99.90
10278;DHT22;5184;51.376;7.148;2024-03-02T04:32:50;8.10;99.90
10278;DHT22;5184;51.376;7.148;2024-03-02T04:35:16;8.10;99.90
10278;DHT22;5184;51.376;7.148;2024-03-02T04:37:43;8.10;99.90
10278;DHT22;5184;51.376;7.148;2024-03-02T04:40:11;8.00;94.40
10278;DHT22;5184;51.376;7.148;2024-03-02T04:42:37;7.90;96.70
10278;DHT22;5184;51.376;7.148;2024-03-02T04:45:04;7.90;95.80
10278;DHT22;5184;51.376;7.148;2024-03-02T04:47:31;7.90;99.90
10278;DHT22;5184;51.376;7.148;2024-03-02T04:49:58;7.90;99.90
10278;DHT22;5184;51.376;7.148;2024-03-02T04:52:25;7.90;99.90
10278;DHT22;5184;51.376;7.148;2024-03-02T04:54:51;7.80;99.90
10278;DHT22;5184;51.376;7.148;2024-03-02T04:57:34;7.80;99.90
10278;DHT22;5184;51.376;7.148;2024-03-02T05:00:01;7.70;99.90
10278;DHT22;5184;51.376;7.148;2024-03-02T05:02:28;7.70;99.90
10278;DHT22;5184;51.376;7.148;2024-03-02T05:04:56;7.60;99.90
10278;DHT22;5184;51.376;7.148;2024-03-02T05:07:23;7.60;99.90
10278;DHT22;5184;51.376;7.148;2024-03-02T05:09:51;7.60;99.90
10278;DHT22;5184;51.376;7.148;2024-03-02T05:12:18;7.60;99.90
10278;DHT22;5184;51.376;7.148;2024-03-02T05:15:04;7.60;99.90
10278;DHT22;5184;51.376;7.148;2024-03-02T05:17:31;7.60;99.90
10278;DHT22;5184;51.376;7.148;2024-03-02T05:19:58;7.50;99.90
10278;DHT22;5184;51.376;7.148;2024-03-02T05:22:25;7.50;99.90
10278;DHT22;5184;51.376;7.148;2024-03-02T05:24:52;7.50;99.90
10278;DHT22;5184;51.376;7.148;2024-03-02T05:27:20;7.50;99.90
10278;DHT22;5184;51.376;7.148;2024-03-02T05:29:47;7.50;99.90
10278;DHT22;5184;51.376;7.148;2024-03-02T05:32:14;7.40;99.90
10278;DHT22;5184;51.376;7.148;2024-03-02T05:34:42;7.50;99.90
10278;DHT22;5184;51.376;7.148;2024-03-02T05:37:09;7.40;99.90
10278;DHT22;5184;51.376;7.148;2024-03-02T05:39:36;7.40;99.90
10278;DHT22;5184;51.376;7.148;2024-03-02T05:42:02;7.40;99.90
10278;DHT22;5184;51.376;7.148;2024-03-02T05:44:29;7.40;99.90
10278;DHT22;5184;51.376;7.148;2024-03-02T05:46:56;7.40;99.90
10278;DHT22;5184;51.376;7.148;2024-03-02T05:49:24;7.30;99.90
10278;DHT22;5184;51.376;7.148;2024-03-02T05:51:51;7.30;99.90
10278;DHT22;5184;51.376;7.148;2024-03-02T05:54:18;7.30;99.90
10278;DHT22;5184;51.376;7.148;2024-03-02T05:56:46;7.20;99.90
10278;DHT22;5184;51.376;7.148;2024-03-02T05:59:14;7.20;99.90
10278;DHT22;5184;51.376;7.148;2024-03-02T06:01:43;7.10;99.90
10278;DHT22;5184;51.376;7.148;2024-03-02T06:04:09;7.10;99.90
10278;DHT22;5184;51.376;7.148;2024-03-02T06:06:36;7.10;99.90
10278;DHT22;5184;51.376;7.148;2024-03-02T06:09:04;7.10;99.90
10278;DHT22;5184;51.376;7.148;2024-03-02T06:11:35;7.10;99.90
10278;DHT22;5184;51.376;7.148;2024-03-02T06:14:01;7.10;99.90
10278;DHT22;5184;51.376;7.148;2024-03-02T06:16:29;7.00;99.90
10278;DHT22;5184;51.376;7.148;2024-03-02T06:18:56;7.00;99.90
10278;DHT22;5184;51.376;7.148;2024-03-02T06:21:24;7.00;99.90
10278;DHT22;5184;51.376;7.148;2024-03-02T06:23:50;7.00;99.90
10278;DHT22;5184;51.376;7.148;2024-03-02T06:26:18;6.90;99.90
10278;DHT22;5184;51.376;7.148;2024-03-02T06:28:45;6.90;99.90
10278;DHT22;5184;51.376;7.148;2024-03-02T06:31:12;6.90;99.90
10278;DHT22;5184;51.376;7.148;2024-03-02T06:33:38;6.90;99.90
10278;DHT22;5184;51.376;7.148;2024-03-02T06:36:05;6.90;99.90
10278;DHT22;5184;51.376;7.148;2024-03-02T06:38:32;6.90;99.90
10278;DHT22;5184;51.376;7.148;2024-03-02T06:40:58;6.90;99.90
10278;DHT22;5184;51.376;7.148;2024-03-02T06:43:25;6.80;99.90
10278;DHT22;5184;51.376;7.148;2024-03-02T06:45:51;6.80;99.90
10278;DHT22;5184;51.376;7.148;2024-03-02T06:48:18;6.80;99.90
10278;DHT22;5184;51.376;7.148;2024-03-02T06:50:44;6.80;99.90
10278;DHT22;5184;51.376;7.148;2024-03-02T06:53:11;6.80;99.90
10278;DHT22;5184;51.376;7.148;2024-03-02T06:55:38;6.80;99.90
10278;DHT22;5184;51.376;7.148;2024-03-02T06:58:05;6.80;99.90
10278;DHT22;5184;51.376;7.148;2024-03-02T07:00:32;6.80;99.90
10278;DHT22;5184;51.376;7.148;2024-03-02T07:03:00;6.80;99.90
10278;DHT22;5184;51.376;7.148;2024-03-02T07:05:26;6.80;99.90
10278;DHT22;5184;51.376;7.148;2024-03-02T07:07:53;6.80;99.90
10278;DHT22;5184;51.376;7.148;2024-03-02T07:10:20;6.90;99.90
10278;DHT22;5184;51.376;7.148;2024-03-02T07:12:47;6.90;99.90
10278;DHT22;5184;51.376;7.148;2024-03-02T07:15:14;6.90;99.90
10278;DHT22;5184;51.376;7.148;2024-03-02T07:18:00;6.90;99.90
10278;DHT22;5184;51.376;7.148;2024-03-02T07:20:27;6.90;99.90
10278;DHT22;5184;51.376;7.148;2024-03-02T07:22:55;7.00;99.90
10278;DHT22;5184;51.376;7.148;2024-03-02T07:25:21;6.90;99.90
10278;DHT22;5184;51.376;7.148;2024-03-02T07:27:49;7.00;99.90
10278;DHT22;5184;51.376;7.148;2024-03-02T07:30:15;7.00;99.90
10278;DHT22;5184;51.376;7.148;2024-03-02T07:32:43;7.10;99.90
10278;DHT22;5184;51.376;7.148;2024-03-02T07:35:09;7.10;99.90
10278;DHT22;5184;51.376;7.148;2024-03-02T07:37:36;7.20;99.90
10278;DHT22;5184;51.376;7.148;2024-03-02T07:40:02;7.30;99.90
10278;DHT22;5184;51.376;7.148;2024-03-02T07:42:29;7.30;99.90
10278;DHT22;5184;51.376;7.148;2024-03-02T07:44:56;7.40;99.90
10278;DHT22;5184;51.376;7.148;2024-03-02T07:47:23;7.50;99.90
10278;DHT22;5184;51.376;7.148;2024-03-02T07:49:50;7.50;99.90
10278;DHT22;5184;51.376;7.148;2024-03-02T07:52:18;7.50;99.90
10278;DHT22;5184;51.376;7.148;2024-03-02T07:54:45;7.60;99.90
10278;DHT22;5184;51.376;7.148;2024-03-02T07:57:12;7.60;99.90
10278;DHT22;5184;51.376;7.148;2024-03-02T07:59:40;7.60;99.90
10278;DHT22;5184;51.376;7.148;2024-03-02T08:02:06;7.60;99.90
10278;DHT22;5184;51.376;7.148;2024-03-02T08:04:33;7.70;99.90
10278;DHT22;5184;51.376;7.148;2024-03-02T08:07:00;7.80;99.90
10278;DHT22;5184;51.376;7.148;2024-03-02T08:09:27;7.90;99.90
10278;DHT22;5184;51.376;7.148;2024-03-02T08:11:54;7.90;99.90
10278;DHT22;5184;51.376;7.148;2024-03-02T08:14:20;8.00;99.90
10278;DHT22;5184;51.376;7.148;2024-03-02T08:16:47;8.10;99.90
10278;DHT22;5184;51.376;7.148;2024-03-02T08:19:14;8.30;99.90
10278;DHT22;5184;51.376;7.148;2024-03-02T08:21:40;8.40;99.90
10278;DHT22;5184;51.376;7.148;2024-03-02T08:24:07;8.50;95.50
10278;DHT22;5184;51.376;7.148;2024-03-02T08:26:33;8.60;94.10
10278;DHT22;5184;51.376;7.148;2024-03-02T08:29:01;8.70;93.10
10278;DHT22;5184;51.376;7.148;2024-03-02T08:31:28;8.70;88.20
10278;DHT22;5184;51.376;7.148;2024-03-02T08:33:55;8.70;96.60
10278;DHT22;5184;51.376;7.148;2024-03-02T08:36:22;8.80;85.00
10278;DHT22;5184;51.376;7.148;2024-03-02T08:38:50;8.90;87.40
10278;DHT22;5184;51.376;7.148;2024-03-02T08:41:17;9.00;59.90
10278;DHT22;5184;51.376;7.148;2024-03-02T08:43:44;9.00;56.90
10278;DHT22;5184;51.376;7.148;2024-03-02T08:46:11;9.10;84.80
10278;DHT22;5184;51.376;7.148;2024-03-02T08:48:39;9.10;56.60
10278;DHT22;5184;51.376;7.148;2024-03-02T08:51:06;9.20;58.40
10278;DHT22;5184;51.376;7.148;2024-03-02T08:53:33;9.10;93.80
10278;DHT22;5184;51.376;7.148;2024-03-02T08:55:59;9.20;88.20
10278;DHT22;5184;51.376;7.148;2024-03-02T08:58:26;9.30;70.60
10278;DHT22;5184;51.376;7.148;2024-03-02T09:00:53;9.40;34.10
10278;DHT22;5184;51.376;7.148;2024-03-02T09:03:21;9.40;39.50
10278;DHT22;5184;51.376;7.148;2024-03-02T09:05:48;9.50;30.50
10278;DHT22;5184;51.376;7.148;2024-03-02T09:08:15;9.50;38.00
10278;DHT22;5184;51.376;7.148;2024-03-02T09:10:43;9.60;42.10
10278;DHT22;5184;51.376;7.148;2024-03-02T09:13:10;9.70;35.70
10278;DHT22;5184;51.376;7.148;2024-03-02T09:15:37;9.70;14.50
10278;DHT22;5184;51.376;7.148;2024-03-02T09:18:05;9.70;30.20
10278;DHT22;5184;51.376;7.148;2024-03-02T09:20:31;9.70;19.90
10278;DHT22;5184;51.376;7.148;2024-03-02T09:22:58;9.80;22.80
10278;DHT22;5184;51.376;7.148;2024-03-02T09:25:25;9.80;34.90
10278;DHT22;5184;51.376;7.148;2024-03-02T09:27:51;9.80;2.60
10278;DHT22;5184;51.376;7.148;2024-03-02T09:30:19;9.90;22.10
10278;DHT22;5184;51.376;7.148;2024-03-02T09:32:46;9.90;5.00
10278;DHT22;5184;51.376;7.148;2024-03-02T09:35:13;10.00;1.00
10278;DHT22;5184;51.376;7.148;2024-03-02T09:37:41;10.00;26.70
10278;DHT22;5184;51.376;7.148;2024-03-02T09:40:09;10.10;1.00
10278;DHT22;5184;51.376;7.148;2024-03-02T09:42:36;10.10;4.40
10278;DHT22;5184;51.376;7.148;2024-03-02T09:45:03;10.20;1.00
10278;DHT22;5184;51.376;7.148;2024-03-02T09:47:30;10.20;10.10
10278;DHT22;5184;51.376;7.148;2024-03-02T09:49:57;10.30;1.00
10278;DHT22;5184;51.376;7.148;2024-03-02T09:52:24;10.30;1.00
10278;DHT22;5184;51.376;7.148;2024-03-02T09:54:51;10.40;1.00
10278;DHT22;5184;51.376;7.148;2024-03-02T09:57:17;10.40;1.00
10278;DHT22;5184;51.376;7.148;2024-03-02T09:59:44;10.50;1.00
10278;DHT22;5184;51.376;7.148;2024-03-02T10:02:10;10.50;1.00
10278;DHT22;5184;51.376;7.148;2024-03-02T10:04:37;10.50;1.00
10278;DHT22;5184;51.376;7.148;2024-03-02T10:07:15;10.60;1.00
10278;DHT22;5184;51.376;7.148;2024-03-02T10:09:42;10.60;1.00
10278;DHT22;5184;51.376;7.148;2024-03-02T10:12:09;10.70;1.00
10278;DHT22;5184;51.376;7.148;2024-03-02T10:14:37;10.70;1.00
10278;DHT22;5184;51.376;7.148;2024-03-02T10:17:06;10.70;1.00
10278;DHT22;5184;51.376;7.148;2024-03-02T10:19:32;10.80;1.00
10278;DHT22;5184;51.376;7.148;2024-03-02T10:21:59;10.90;1.00
10278;DHT22;5184;51.376;7.148;2024-03-02T10:24:26;11.00;1.00
10278;DHT22;5184;51.376;7.148;2024-03-02T10:26:53;11.00;1.00
10278;DHT22;5184;51.376;7.148;2024-03-02T10:29:19;11.10;1.00
10278;DHT22;5184;51.376;7.148;2024-03-02T10:31:46;11.10;1.00
10278;DHT22;5184;51.376;7.148;2024-03-02T10:34:13;11.20;1.00
10278;DHT22;5184;51.376;7.148;2024-03-02T10:36:41;11.20;1.00
10278;DHT22;5184;51.376;7.148;2024-03-02T10:39:08;11.30;1.00
10278;DHT22;5184;51.376;7.148;2024-03-02T10:41:34;11.40;1.00
10278;DHT22;5184;51.376;7.148;2024-03-02T10:44:02;11.50;1.00
10278;DHT22;5184;51.376;7.148;2024-03-02T10:46:29;11.60;1.00
10278;DHT22;5184;51.376;7.148;2024-03-02T10:48:55;11.70;1.00
10278;DHT22;5184;51.376;7.148;2024-03-02T10:51:21;11.70;1.00
10278;DHT22;5184;51.376;7.148;2024-03-02T10:53:48;11.80;1.00
10278;DHT22;5184;51.376;7.148;2024-03-02T10:56:16;11.90;1.00
10278;DHT22;5184;51.376;7.148;2024-03-02T10:58:42;12.00;1.00
10278;DHT22;5184;51.376;7.148;2024-03-02T11:01:08;11.90;1.00
10278;DHT22;5184;51.376;7.148;2024-03-02T11:03:36;12.10;1.00
10278;DHT22;5184;51.376;7.148;2024-03-02T11:06:04;12.00;1.00
10278;DHT22;5184;51.376;7.148;2024-03-02T11:08:31;12.10;1.00
10278;DHT22;5184;51.376;7.148;2024-03-02T11:10:57;12.10;1.00
10278;DHT22;5184;51.376;7.148;2024-03-02T11:13:27;12.20;1.00
10278;DHT22;5184;51.376;7.148;2024-03-02T11:15:54;12.30;1.00
10278;DHT22;5184;51.376;7.148;2024-03-02T11:18:19;12.30;1.00
10278;DHT22;5184;51.376;7.148;2024-03-02T11:20:46;12.50;1.00
10278;DHT22;5184;51.376;7.148;2024-03-02T11:23:13;12.50;1.00
10278;DHT22;5184;51.376;7.148;2024-03-02T11:25:41;12.50;1.00
10278;DHT22;5184;51.376;7.148;2024-03-02T11:28:07;12.50;1.00
10278;DHT22;5184;51.376;7.148;2024-03-02T11:30:51;12.50;1.00
10278;DHT22;5184;51.376;7.148;2024-03-02T11:33:22;12.60;1.00
10278;DHT22;5184;51.376;7.148;2024-03-02T11:35:45;12.70;1.00
10278;DHT22;5184;51.376;7.148;2024-03-02T11:38:13;12.80;1.00
10278;DHT22;5184;51.376;7.148;2024-03-02T11:40:39;12.80;1.00
10278;DHT22;5184;51.376;7.148;2024-03-02T11:43:06;12.80;1.00
10278;DHT22;5184;51.376;7.148;2024-03-02T11:45:33;12.80;1.00
10278;DHT22;5184;51.376;7.148;2024-03-02T11:47:59;12.80;1.00
10278;DHT22;5184;51.376;7.148;2024-03-02T11:50:30;12.90;1.00
10278;DHT22;5184;51.376;7.148;2024-03-02T11:52:57;12.90;1.00
10278;DHT22;5184;51.376;7.148;2024-03-02T11:55:23;13.10;1.00
10278;DHT22;5184;51.376;7.148;2024-03-02T11:57:49;13.20;1.00
10278;DHT22;5184;51.376;7.148;2024-03-02T12:00:17;13.10;1.00
10278;DHT22;5184;51.376;7.148;2024-03-02T12:02:43;13.20;1.00
10278;DHT22;5184;51.376;7.148;2024-03-02T12:05:11;13.20;1.00
10278;DHT22;5184;51.376;7.148;2024-03-02T12:07:38;13.10;1.00
10278;DHT22;5184;51.376;7.148;2024-03-02T12:10:05;13.10;1.00
10278;DHT22;5184;51.376;7.148;2024-03-02T12:12:32;13.10;1.00
10278;DHT22;5184;51.376;7.148;2024-03-02T12:15:00;13.20;1.00
10278;DHT22;5184;51.376;7.148;2024-03-02T12:17:26;13.20;1.00
10278;DHT22;5184;51.376;7.148;2024-03-02T12:19:54;13.20;1.00
10278;DHT22;5184;51.376;7.148;2024-03-02T12:22:21;13.20;1.00
10278;DHT22;5184;51.376;7.148;2024-03-02T12:24:47;13.30;1.00
10278;DHT22;5184;51.376;7.148;2024-03-02T12:27:14;13.40;1.00
10278;DHT22;5184;51.376;7.148;2024-03-02T12:29:42;13.40;99.90
10278;DHT22;5184;51.376;7.148;2024-03-02T12:32:10;13.50;1.00
10278;DHT22;5184;51.376;7.148;2024-03-02T12:34:37;13.50;1.00
10278;DHT22;5184;51.376;7.148;2024-03-02T12:37:03;13.60;99.90
10278;DHT22;5184;51.376;7.148;2024-03-02T12:39:31;13.40;99.90
10278;DHT22;5184;51.376;7.148;2024-03-02T12:41:58;13.70;99.90
10278;DHT22;5184;51.376;7.148;2024-03-02T12:44:25;13.70;99.90
10278;DHT22;5184;51.376;7.148;2024-03-02T12:46:52;13.70;99.90
10278;DHT22;5184;51.376;7.148;2024-03-02T12:49:21;13.80;99.90
10278;DHT22;5184;51.376;7.148;2024-03-02T12:51:47;13.80;1.00
10278;DHT22;5184;51.376;7.148;2024-03-02T12:54:15;13.90;99.90
10278;DHT22;5184;51.376;7.148;2024-03-02T12:56:41;13.90;99.90
10278;DHT22;5184;51.376;7.148;2024-03-02T12:59:18;13.90;1.00
10278;DHT22;5184;51.376;7.148;2024-03-02T13:01:51;13.90;1.00
10278;DHT22;5184;51.376;7.148;2024-03-02T13:04:17;13.80;99.90
10278;DHT22;5184;51.376;7.148;2024-03-02T13:06:44;13.80;99.90
10278;DHT22;5184;51.376;7.148;2024-03-02T13:09:12;13.90;1.00
10278;DHT22;5184;51.376;7.148;2024-03-02T13:11:39;14.00;99.90
10278;DHT22;5184;51.376;7.148;2024-03-02T13:14:05;13.90;99.90
10278;DHT22;5184;51.376;7.148;2024-03-02T13:16:37;13.70;99.90
10278;DHT22;5184;51.376;7.148;2024-03-02T13:18:59;13.50;99.90
10278;DHT22;5184;51.376;7.148;2024-03-02T13:21:25;13.50;1.00
10278;DHT22;5184;51.376;7.148;2024-03-02T13:23:52;13.50;1.00
10278;DHT22;5184;51.376;7.148;2024-03-02T13:26:19;13.40;99.90
10278;DHT22;5184;51.376;7.148;2024-03-02T13:28:47;13.30;1.00
10278;DHT22;5184;51.376;7.148;2024-03-02T13:31:14;13.30;1.00
10278;DHT22;5184;51.376;7.148;2024-03-02T13:33:41;13.30;1.00
10278;DHT22;5184;51.376;7.148;2024-03-02T13:36:09;13.30;1.00
10278;DHT22;5184;51.376;7.148;2024-03-02T13:38:37;13.30;1.00
10278;DHT22;5184;51.376;7.148;2024-03-02T13:41:03;13.30;1.00
10278;DHT22;5184;51.376;7.148;2024-03-02T13:43:30;13.30;1.00
10278;DHT22;5184;51.376;7.148;2024-03-02T13:45:58;13.50;1.00
10278;DHT22;5184;51.376;7.148;2024-03-02T13:48:25;13.50;1.00
10278;DHT22;5184;51.376;7.148;2024-03-02T13:50:53;13.60;1.00
10278;DHT22;5184;51.376;7.148;2024-03-02T13:53:21;13.60;1.00
10278;DHT22;5184;51.376;7.148;2024-03-02T13:55:48;13.70;99.90
10278;DHT22;5184;51.376;7.148;2024-03-02T13:58:14;13.70;99.90
10278;DHT22;5184;51.376;7.148;2024-03-02T14:00:41;13.90;1.00
10278;DHT22;5184;51.376;7.148;2024-03-02T14:03:08;14.00;99.90
10278;DHT22;5184;51.376;7.148;2024-03-02T14:05:34;14.10;99.90
10278;DHT22;5184;51.376;7.148;2024-03-02T14:08:01;14.00;99.90
10278;DHT22;5184;51.376;7.148;2024-03-02T14:10:28;14.00;99.90
10278;DHT22;5184;51.376;7.148;2024-03-02T14:12:56;14.00;99.90
10278;DHT22;5184;51.376;7.148;2024-03-02T14:15:22;14.00;99.90
10278;DHT22;5184;51.376;7.148;2024-03-02T14:17:49;13.90;99.90
10278;DHT22;5184;51.376;7.148;2024-03-02T14:20:15;13.90;99.90
10278;DHT22;5184;51.376;7.148;2024-03-02T14:22:42;14.00;99.90
10278;DHT22;5184;51.376;7.148;2024-03-02T14:25:09;13.90;99.90
10278;DHT22;5184;51.376;7.148;2024-03-02T14:27:36;13.90;99.90
10278;DHT22;5184;51.376;7.148;2024-03-02T14:30:04;14.00;99.90
10278;DHT22;5184;51.376;7.148;2024-03-02T14:32:30;14.00;99.90
10278;DHT22;5184;51.376;7.148;2024-03-02T14:34:57;14.00;99.90
10278;DHT22;5184;51.376;7.148;2024-03-02T14:37:24;14.20;99.90
10278;DHT22;5184;51.376;7.148;2024-03-02T14:39:52;14.30;99.90
10278;DHT22;5184;51.376;7.148;2024-03-02T14:42:18;14.30;99.90
10278;DHT22;5184;51.376;7.148;2024-03-02T14:44:45;14.40;99.90
10278;DHT22;5184;51.376;7.148;2024-03-02T14:47:11;14.40;99.90
10278;DHT22;5184;51.376;7.148;2024-03-02T14:49:38;14.50;99.90
10278;DHT22;5184;51.376;7.148;2024-03-02T14:52:05;14.50;99.90
10278;DHT22;5184;51.376;7.148;2024-03-02T14:54:31;14.40;99.90
10278;DHT22;5184;51.376;7.148;2024-03-02T14:56:59;14.30;99.90
10278;DHT22;5184;51.376;7.148;2024-03-02T14:59:26;14.20;99.90
10278;DHT22;5184;51.376;7.148;2024-03-02T15:01:54;14.20;99.90
10278;DHT22;5184;51.376;7.148;2024-03-02T15:04:20;14.20;99.90
10278;DHT22;5184;51.376;7.148;2024-03-02T15:06:48;13.90;99.90
10278;DHT22;5184;51.376;7.148;2024-03-02T15:09:14;13.90;99.90
10278;DHT22;5184;51.376;7.148;2024-03-02T15:11:41;13.80;99.90
10278;DHT22;5184;51.376;7.148;2024-03-02T15:14:07;13.80;99.90
10278;DHT22;5184;51.376;7.148;2024-03-02T15:16:34;13.80;1.00
10278;DHT22;5184;51.376;7.148;2024-03-02T15:19:00;13.80;1.00
10278;DHT22;5184;51.376;7.148;2024-03-02T15:21:28;13.90;99.90
10278;DHT22;5184;51.376;7.148;2024-03-02T15:23:56;13.80;1.00
10278;DHT22;5184;51.376;7.148;2024-03-02T15:26:23;13.80;1.00
10278;DHT22;5184;51.376;7.148;2024-03-02T15:28:51;13.80;99.90
10278;DHT22;5184;51.376;7.148;2024-03-02T15:31:17;13.80;1.00
10278;DHT22;5184;51.376;7.148;2024-03-02T15:33:44;13.70;1.00
10278;DHT22;5184;51.376;7.148;2024-03-02T15:36:11;13.70;1.00
10278;DHT22;5184;51.376;7.148;2024-03-02T15:38:38;13.70;1.00
10278;DHT22;5184;51.376;7.148;2024-03-02T15:41:05;13.60;1.00
10278;DHT22;5184;51.376;7.148;2024-03-02T15:43:33;13.70;1.00
10278;DHT22;5184;51.376;7.148;2024-03-02T15:46:00;13.60;1.00
10278;DHT22;5184;51.376;7.148;2024-03-02T15:48:27;13.60;1.00
10278;DHT22;5184;51.376;7.148;2024-03-02T15:50:54;13.60;1.00
10278;DHT22;5184;51.376;7.148;2024-03-02T15:53:21;13.60;1.00
10278;DHT22;5184;51.376;7.148;2024-03-02T15:55:47;13.50;1.00
10278;DHT22;5184;51.376;7.148;2024-03-02T15:58:14;13.50;1.00